Terminal Aerodrome Forecast
Issued by NWS

Home | Current Version | Previous Version | Text Only | Print | Product List | Glossary On
Versions: 1 2 3 4 5 6 7 8 9 10 11 12 13 14 15 16 17 18 19 20 21 22 23 24 25 26 27 28 29 30 31 32 33 34 35 36
000
FTPA31 PHFO 260100 AAA
TAFITO
TAF AMD
PHTO 260123Z 2601/2624 04011KT 6SM -RA SCT010 BKN020 OVC035
      TEMPO 2601/2603 2SM +RA
     FM260400 35011KT 6SM -RA SCT015 BKN020 OVC035
     FM261200 32011KT 2SM RA BR SCT009 BKN015 OVC030
     FM262000 03011KT 6SM -RA SCT015 BKN020 OVC035=

USA.gov is the U.S. government's official web portal to all federal, state and local government web resources and services.